createdAt,value
2023-02-15T00:00:13.931Z,13.20
2023-02-15T00:03:01.768Z,13.30
2023-02-15T00:05:31.940Z,12.60
2023-02-15T00:07:59.815Z,12.30
2023-02-15T00:10:27.735Z,12.70
2023-02-15T00:12:55.593Z,13.00
2023-02-15T00:15:23.502Z,12.60
2023-02-15T00:17:51.483Z,12.70
2023-02-15T00:20:20.061Z,12.90
2023-02-15T00:22:47.812Z,14.60
2023-02-15T00:25:15.794Z,15.10
2023-02-15T00:27:43.846Z,13.70
2023-02-15T00:30:12.423Z,13.90
2023-02-15T00:32:40.296Z,14.00
2023-02-15T00:35:08.480Z,14.70
2023-02-15T00:37:36.539Z,15.30
2023-02-15T00:40:07.663Z,15.90
2023-02-15T00:42:36.363Z,14.90
2023-02-15T00:45:04.754Z,15.50
2023-02-15T00:47:32.924Z,15.60
2023-02-15T00:50:00.787Z,16.70
2023-02-15T00:52:28.860Z,16.20
2023-02-15T00:54:56.990Z,15.30
2023-02-15T00:57:24.826Z,15.20
2023-02-15T00:59:52.694Z,14.10
2023-02-15T01:02:20.628Z,13.70
2023-02-15T01:04:48.699Z,11.80
2023-02-15T01:07:17.020Z,12.80
2023-02-15T01:09:44.865Z,14.30
2023-02-15T01:12:12.713Z,13.90
2023-02-15T01:14:40.576Z,13.60
2023-02-15T01:17:08.312Z,13.20
2023-02-15T01:19:36.302Z,13.00
2023-02-15T01:22:04.682Z,13.50
2023-02-15T01:24:32.928Z,13.20
2023-02-15T01:27:00.824Z,14.20
2023-02-15T01:29:28.689Z,14.50
2023-02-15T01:31:56.625Z,14.60
2023-02-15T01:34:24.725Z,13.60
2023-02-15T01:36:52.548Z,14.40
2023-02-15T01:39:20.348Z,14.20
2023-02-15T01:41:48.207Z,14.30
2023-02-15T01:44:35.155Z,14.30
2023-02-15T01:47:03.090Z,16.30
2023-02-15T01:49:30.922Z,16.30
2023-02-15T01:51:58.730Z,17.90
2023-02-15T01:54:32.556Z,16.00
2023-02-15T01:57:04.882Z,16.60
2023-02-15T01:59:33.508Z,17.60
2023-02-15T02:02:02.097Z,16.90
2023-02-15T02:04:36.492Z,16.50
2023-02-15T02:07:05.529Z,16.60
2023-02-15T02:09:33.446Z,16.10
2023-02-15T02:12:02.286Z,17.30
2023-02-15T02:14:30.508Z,16.00
2023-02-15T02:17:02.370Z,16.80
2023-02-15T02:19:30.132Z,16.80
2023-02-15T02:22:16.949Z,16.50
2023-02-15T02:27:15.284Z,15.00
2023-02-15T02:29:58.282Z,16.10
2023-02-15T02:32:29.298Z,17.20
2023-02-15T02:34:57.172Z,17.50
2023-02-15T02:37:29.214Z,17.40
2023-02-15T02:40:23.505Z,17.90
2023-02-15T02:42:57.415Z,17.20
2023-02-15T02:45:42.129Z,19.10
2023-02-15T02:48:13.538Z,20.80
2023-02-15T02:50:42.213Z,20.00
2023-02-15T02:53:10.207Z,20.00
2023-02-15T02:55:41.016Z,20.10
2023-02-15T02:58:08.756Z,20.30
2023-02-15T03:00:40.220Z,20.70
2023-02-15T03:03:11.991Z,19.50
2023-02-15T03:05:42.790Z,19.40
2023-02-15T03:08:12.018Z,19.80
2023-02-15T03:10:41.005Z,18.30
2023-02-15T03:13:09.647Z,18.50
2023-02-15T03:16:01.383Z,18.90
2023-02-15T03:18:32.397Z,18.20
2023-02-15T03:21:01.735Z,18.90
2023-02-15T03:23:30.921Z,17.70
2023-02-15T03:26:04.392Z,18.90
2023-02-15T03:28:37.600Z,18.30
2023-02-15T03:31:06.621Z,18.10
2023-02-15T03:33:36.962Z,16.00
2023-02-15T03:36:07.901Z,18.00
2023-02-15T03:38:44.368Z,18.20
2023-02-15T03:41:13.552Z,17.00
2023-02-15T03:43:53.127Z,17.60
2023-02-15T03:46:28.797Z,17.90
2023-02-15T03:49:00.116Z,17.60
2023-02-15T03:51:37.390Z,18.20
2023-02-15T03:54:13.759Z,16.70
2023-02-15T03:56:42.542Z,19.00
2023-02-15T03:59:29.225Z,18.20
2023-02-15T04:02:07.658Z,18.20
2023-02-15T04:04:37.074Z,17.40
2023-02-15T04:07:06.444Z,17.80
2023-02-15T04:09:52.963Z,17.70
2023-02-15T04:12:21.345Z,17.80
2023-02-15T04:15:08.116Z,17.20
2023-02-15T04:17:37.238Z,16.70
2023-02-15T04:20:24.704Z,17.10
2023-02-15T04:23:11.212Z,18.50
2023-02-15T04:25:39.084Z,16.60
2023-02-15T04:28:08.739Z,17.10
2023-02-15T04:30:36.711Z,17.40
2023-02-15T04:33:04.582Z,17.70
2023-02-15T04:35:34.433Z,16.40
2023-02-15T04:38:02.137Z,17.30
2023-02-15T04:40:30.031Z,17.10
2023-02-15T04:42:57.777Z,17.30
2023-02-15T04:45:25.757Z,17.30
2023-02-15T04:47:53.956Z,17.00
2023-02-15T04:50:21.803Z,16.40
2023-02-15T04:52:49.767Z,17.10
2023-02-15T04:55:17.705Z,17.50
2023-02-15T04:57:46.920Z,17.40
2023-02-15T05:00:14.981Z,16.90
2023-02-15T05:02:42.702Z,17.40
2023-02-15T05:05:14.035Z,17.90
2023-02-15T05:07:42.374Z,17.20
2023-02-15T05:10:10.649Z,17.40
2023-02-15T05:12:38.526Z,18.20
2023-02-15T05:15:06.791Z,16.60
2023-02-15T05:17:34.901Z,17.00
2023-02-15T05:20:02.932Z,16.60
2023-02-15T05:22:31.030Z,17.70
2023-02-15T05:25:17.812Z,17.10
2023-02-15T05:28:05.289Z,16.80
2023-02-15T05:30:33.710Z,16.70
2023-02-15T05:33:01.574Z,16.90
2023-02-15T05:35:29.256Z,16.50
2023-02-15T05:37:57.194Z,16.10
2023-02-15T05:40:24.935Z,16.40
2023-02-15T05:42:52.772Z,16.40
2023-02-15T05:45:21.018Z,17.00
2023-02-15T05:47:48.934Z,15.40
2023-02-15T05:50:16.956Z,16.80
2023-02-15T05:52:44.718Z,16.20
2023-02-15T05:55:13.278Z,16.40
2023-02-15T05:57:41.149Z,16.30
2023-02-15T06:00:10.962Z,16.90
2023-02-15T06:02:39.753Z,17.10
2023-02-15T06:05:08.355Z,15.70
2023-02-15T06:07:36.218Z,15.90
2023-02-15T06:10:05.070Z,16.50
2023-02-15T06:12:32.924Z,16.90
2023-02-15T06:15:00.853Z,16.20
2023-02-15T06:17:28.800Z,17.50
2023-02-15T06:19:56.782Z,17.70
2023-02-15T06:22:24.947Z,17.10
2023-02-15T06:24:52.827Z,17.40
2023-02-15T06:27:20.655Z,16.70
2023-02-15T06:29:48.543Z,17.20
2023-02-15T06:32:17.241Z,16.90
2023-02-15T06:34:46.310Z,17.20
2023-02-15T06:37:15.056Z,17.50
2023-02-15T06:39:44.054Z,16.90
2023-02-15T06:42:12.177Z,17.60
2023-02-15T06:44:40.183Z,17.20
2023-02-15T06:47:07.972Z,17.70
2023-02-15T06:49:35.974Z,17.20
2023-02-15T06:52:04.579Z,16.80
2023-02-15T06:54:32.529Z,17.90
2023-02-15T06:57:00.254Z,18.00
2023-02-15T06:59:28.364Z,17.90
2023-02-15T07:01:56.289Z,19.20
2023-02-15T07:04:24.365Z,18.10
2023-02-15T07:06:54.135Z,17.50
2023-02-15T07:09:22.897Z,17.00
2023-02-15T07:12:09.699Z,20.40
2023-02-15T07:17:11.678Z,21.40
2023-02-15T07:19:42.756Z,24.80
2023-02-15T07:22:11.403Z,26.10
2023-02-15T07:24:39.268Z,24.40
2023-02-15T07:27:12.814Z,24.40
2023-02-15T07:29:41.865Z,23.60
2023-02-15T07:32:09.718Z,22.50
2023-02-15T07:34:37.755Z,21.90
2023-02-15T07:37:05.574Z,21.20
2023-02-15T07:39:33.356Z,22.30
2023-02-15T07:42:01.594Z,21.50
2023-02-15T07:44:29.473Z,20.40
2023-02-15T07:46:57.698Z,21.70
2023-02-15T07:49:25.706Z,23.30
2023-02-15T07:51:53.677Z,21.80
2023-02-15T07:54:21.648Z,22.10
2023-02-15T07:56:49.711Z,20.80
2023-02-15T07:59:17.866Z,22.20
2023-02-15T08:01:45.984Z,22.90
2023-02-15T08:04:14.130Z,22.70
2023-02-15T08:06:41.957Z,24.20
2023-02-15T08:09:10.675Z,21.90
2023-02-15T08:11:40.847Z,22.30
2023-02-15T08:14:10.207Z,23.70
2023-02-15T08:16:39.331Z,22.30
2023-02-15T08:19:11.064Z,24.30
2023-02-15T08:21:40.662Z,25.60
2023-02-15T08:24:09.451Z,24.00
2023-02-15T08:26:38.329Z,26.50
2023-02-15T08:29:07.842Z,22.90
2023-02-15T08:31:36.615Z,21.50
2023-02-15T08:34:05.178Z,23.70
2023-02-15T08:36:33.824Z,23.30
2023-02-15T08:39:02.891Z,22.10
2023-02-15T08:41:33.219Z,22.30
2023-02-15T08:44:02.415Z,22.70
2023-02-15T08:46:31.260Z,22.70
2023-02-15T08:48:59.399Z,22.70
2023-02-15T08:51:35.066Z,23.70
2023-02-15T08:54:04.624Z,23.00
2023-02-15T08:56:36.738Z,23.10
2023-02-15T08:59:05.693Z,22.00
2023-02-15T09:01:34.951Z,22.40
2023-02-15T09:04:11.164Z,23.90
2023-02-15T09:06:39.728Z,23.80
2023-02-15T09:09:08.577Z,22.90
2023-02-15T09:11:40.784Z,23.20
2023-02-15T09:14:10.588Z,21.50
2023-02-15T09:16:39.312Z,22.90
2023-02-15T09:19:08.667Z,22.60
2023-02-15T09:21:37.572Z,21.50
2023-02-15T09:24:07.697Z,22.50
2023-02-15T09:26:36.894Z,22.60
2023-02-15T09:29:05.057Z,22.50
2023-02-15T09:31:40.952Z,22.20
2023-02-15T09:34:09.092Z,23.90
2023-02-15T09:36:38.885Z,22.50
2023-02-15T09:39:13.528Z,21.80
2023-02-15T09:41:56.859Z,21.60
2023-02-15T09:44:30.912Z,23.20
2023-02-15T09:47:11.416Z,22.90
2023-02-15T09:49:58.222Z,27.80
2023-02-15T09:52:35.407Z,21.00
2023-02-15T09:57:37.184Z,21.10
2023-02-15T10:00:11.560Z,20.70
2023-02-15T10:02:57.904Z,20.40
2023-02-15T10:05:49.082Z,21.20
2023-02-15T10:08:20.162Z,20.40
2023-02-15T10:11:36.664Z,20.70
2023-02-15T10:14:14.254Z,22.20
2023-02-15T10:17:04.653Z,20.70
2023-02-15T10:19:44.741Z,21.70
2023-02-15T10:22:32.213Z,22.10
2023-02-15T10:25:08.301Z,22.00
2023-02-15T10:27:38.608Z,21.60
2023-02-15T10:30:11.993Z,21.80
2023-02-15T10:32:52.670Z,23.60
2023-02-15T10:35:24.512Z,23.40
2023-02-15T10:38:01.731Z,20.90
2023-02-15T10:40:34.407Z,22.40
2023-02-15T10:43:07.908Z,21.20
2023-02-15T10:45:40.477Z,22.70
2023-02-15T10:48:36.602Z,22.20
2023-02-15T10:51:06.359Z,22.00
2023-02-15T10:53:40.351Z,21.50
2023-02-15T10:56:13.411Z,21.50
2023-02-15T10:58:50.713Z,21.30
2023-02-15T11:01:22.520Z,21.40
2023-02-15T11:04:02.701Z,20.60
2023-02-15T11:06:31.720Z,20.40
2023-02-15T11:09:05.594Z,20.50
2023-02-15T11:11:36.076Z,19.90
2023-02-15T11:14:07.085Z,21.00
2023-02-15T11:16:40.599Z,20.70
2023-02-15T11:19:14.513Z,20.50
2023-02-15T11:21:48.064Z,22.90
2023-02-15T11:24:19.425Z,21.70
2023-02-15T11:26:50.583Z,20.20
2023-02-15T11:29:18.447Z,20.90
2023-02-15T11:31:47.973Z,20.30
2023-02-15T11:34:30.593Z,20.20
2023-02-15T11:37:02.574Z,20.90
2023-02-15T11:39:32.823Z,22.30
2023-02-15T11:42:03.587Z,21.70
2023-02-15T11:44:33.775Z,21.00
2023-02-15T11:47:02.667Z,20.60
2023-02-15T11:49:32.243Z,21.60
2023-02-15T11:52:06.386Z,21.70
2023-02-15T11:54:38.674Z,20.80
2023-02-15T11:57:16.608Z,20.80
2023-02-15T11:59:50.258Z,20.90
2023-02-15T12:02:19.910Z,20.90
2023-02-15T12:05:17.830Z,20.20
2023-02-15T12:08:08.494Z,20.40
2023-02-15T12:10:39.056Z,19.80
2023-02-15T12:13:17.646Z,19.60
2023-02-15T12:15:47.790Z,20.50
2023-02-15T12:18:38.886Z,20.60
2023-02-15T12:21:08.881Z,20.40
2023-02-15T12:23:42.024Z,20.90
2023-02-15T12:26:10.185Z,19.90
2023-02-15T12:28:41.198Z,19.10
2023-02-15T12:31:20.322Z,20.00
2023-02-15T12:33:48.861Z,36.80
2023-02-15T12:36:19.399Z,20.20
2023-02-15T12:39:08.425Z,21.40
2023-02-15T12:41:38.098Z,23.40
2023-02-15T12:44:17.879Z,20.00
2023-02-15T12:46:59.951Z,19.70
2023-02-15T12:49:32.822Z,19.20
2023-02-15T12:52:02.159Z,19.10
2023-02-15T12:54:30.129Z,19.20
2023-02-15T12:56:58.919Z,19.50
2023-02-15T12:59:27.170Z,20.80
2023-02-15T13:01:55.880Z,19.30
2023-02-15T13:04:27.255Z,19.90
2023-02-15T13:07:00.115Z,18.40
2023-02-15T13:09:32.181Z,20.60
2023-02-15T13:12:18.767Z,19.30
2023-02-15T13:14:47.816Z,18.50
2023-02-15T13:17:18.490Z,19.30
2023-02-15T13:19:52.861Z,19.90
2023-02-15T13:22:23.869Z,19.70
2023-02-15T13:24:54.509Z,19.00
2023-02-15T13:27:24.987Z,18.80
2023-02-15T13:29:54.677Z,18.80
2023-02-15T13:32:26.545Z,18.00
2023-02-15T13:34:59.487Z,19.50
2023-02-15T13:37:27.440Z,18.90
2023-02-15T13:39:59.302Z,17.40
2023-02-15T13:42:27.885Z,33.30
2023-02-15T13:45:04.255Z,23.50
2023-02-15T13:47:55.338Z,22.30
2023-02-15T13:50:35.717Z,21.30
2023-02-15T13:53:03.901Z,19.20
2023-02-15T13:55:38.725Z,18.90
2023-02-15T13:58:30.112Z,20.70
2023-02-15T14:01:18.404Z,20.90
2023-02-15T14:03:55.933Z,20.90
2023-02-15T14:06:30.674Z,20.20
2023-02-15T14:09:05.594Z,21.20
2023-02-15T14:11:36.591Z,22.40
2023-02-15T14:14:10.680Z,21.70
2023-02-15T14:17:00.826Z,20.70
2023-02-15T14:19:46.881Z,20.50
2023-02-15T14:22:14.732Z,19.90
2023-02-15T14:24:44.555Z,21.10
2023-02-15T14:27:35.914Z,23.50
2023-02-15T14:30:11.844Z,22.70
2023-02-15T14:32:42.335Z,22.60
2023-02-15T14:35:14.745Z,23.80
2023-02-15T14:37:51.782Z,22.90
2023-02-15T14:43:12.813Z,20.90
2023-02-15T14:46:04.058Z,23.40
2023-02-15T14:48:34.653Z,22.10
2023-02-15T14:51:03.023Z,23.90
2023-02-15T14:53:32.042Z,23.20
2023-02-15T14:56:20.822Z,23.10
2023-02-15T14:58:53.487Z,22.70
2023-02-15T15:01:29.961Z,24.70
2023-02-15T15:04:00.578Z,24.00
2023-02-15T15:06:33.047Z,25.30
2023-02-15T15:09:10.829Z,23.00
2023-02-15T15:11:43.948Z,23.00
2023-02-15T15:14:34.088Z,23.70
2023-02-15T15:17:05.898Z,25.10
2023-02-15T15:19:53.702Z,26.10
2023-02-15T15:22:22.985Z,24.30
2023-02-15T15:24:52.396Z,24.80
2023-02-15T15:27:44.332Z,24.40
2023-02-15T15:30:15.931Z,25.50
2023-02-15T15:32:44.566Z,29.20
2023-02-15T15:35:28.028Z,30.70
2023-02-15T15:38:15.120Z,30.30
2023-02-15T15:40:56.253Z,25.10
2023-02-15T15:43:37.302Z,23.90
2023-02-15T15:46:25.737Z,24.60
2023-02-15T15:48:54.357Z,24.10
2023-02-15T15:51:27.542Z,23.10
2023-02-15T15:53:56.095Z,23.80
2023-02-15T15:56:32.662Z,26.40
2023-02-15T16:01:31.159Z,21.80
2023-02-15T16:04:01.173Z,23.20
2023-02-15T16:06:29.215Z,23.00
2023-02-15T16:08:57.390Z,23.30
2023-02-15T16:11:26.369Z,23.20
2023-02-15T16:13:54.868Z,23.90
2023-02-15T16:16:29.242Z,24.80
2023-02-15T16:18:59.199Z,28.40
2023-02-15T16:21:33.084Z,25.80
2023-02-15T16:24:08.696Z,25.10
2023-02-15T16:26:55.668Z,23.10
2023-02-15T16:29:29.669Z,25.40
2023-02-15T16:32:16.146Z,28.80
2023-02-15T16:34:54.693Z,25.80
2023-02-15T16:37:24.636Z,29.90
2023-02-15T16:39:52.675Z,29.30
2023-02-15T16:42:20.849Z,29.60
2023-02-15T16:45:09.234Z,25.30
2023-02-15T16:47:41.467Z,26.90
2023-02-15T16:50:18.752Z,26.20
2023-02-15T16:55:25.639Z,26.80
2023-02-15T16:57:57.680Z,25.40
2023-02-15T17:00:31.880Z,22.80
2023-02-15T17:03:07.407Z,23.70
2023-02-15T17:05:43.851Z,24.30
2023-02-15T17:08:19.771Z,23.30
2023-02-15T17:11:00.222Z,22.80
2023-02-15T17:13:29.142Z,22.70
2023-02-15T17:16:03.329Z,23.00
2023-02-15T17:18:33.364Z,22.30
2023-02-15T17:21:11.094Z,25.00
2023-02-15T17:23:44.752Z,36.40
2023-02-15T17:26:16.680Z,37.20
2023-02-15T17:28:49.463Z,31.00
2023-02-15T17:31:18.999Z,29.90
2023-02-15T17:33:48.210Z,37.10
2023-02-15T17:36:23.709Z,33.00
2023-02-15T17:38:57.868Z,31.80
2023-02-15T17:41:35.559Z,31.00
2023-02-15T17:44:04.253Z,30.20
2023-02-15T17:46:37.438Z,30.10
2023-02-15T17:49:06.023Z,27.80
2023-02-15T17:51:36.079Z,26.30
2023-02-15T17:54:23.043Z,26.00
2023-02-15T17:59:19.093Z,23.20
2023-02-15T18:02:07.542Z,24.70
2023-02-15T18:04:55.691Z,25.80
2023-02-15T18:07:42.392Z,25.80
2023-02-15T18:10:34.222Z,24.40
2023-02-15T18:13:03.184Z,23.70
2023-02-15T18:15:31.389Z,24.80
2023-02-15T18:17:59.311Z,24.80
2023-02-15T18:20:37.175Z,25.20
2023-02-15T18:23:06.043Z,26.20
2023-02-15T18:25:34.028Z,28.00
2023-02-15T18:28:06.588Z,25.90
2023-02-15T18:30:41.542Z,25.80
2023-02-15T18:33:17.760Z,28.70
2023-02-15T18:35:49.292Z,27.90
2023-02-15T18:38:17.397Z,23.10
2023-02-15T18:40:46.198Z,22.90
2023-02-15T18:43:18.768Z,24.90
2023-02-15T18:45:47.885Z,24.70
2023-02-15T18:48:17.868Z,26.30
2023-02-15T18:50:47.101Z,28.70
2023-02-15T18:53:19.454Z,27.60
2023-02-15T18:55:50.052Z,26.80
2023-02-15T18:58:19.883Z,26.60
2023-02-15T19:00:50.981Z,25.70
2023-02-15T19:03:19.728Z,26.40
2023-02-15T19:05:48.709Z,27.70
2023-02-15T19:08:25.071Z,28.60
2023-02-15T19:10:53.853Z,26.90
2023-02-15T19:13:22.147Z,26.00
2023-02-15T19:15:51.885Z,26.70
2023-02-15T19:18:20.130Z,25.80
2023-02-15T19:20:48.826Z,27.40
2023-02-15T19:23:19.854Z,27.30
2023-02-15T19:25:50.932Z,26.10
2023-02-15T19:28:25.108Z,26.80
2023-02-15T19:30:53.820Z,25.50
2023-02-15T19:33:25.099Z,24.00
2023-02-15T19:35:58.018Z,25.20
2023-02-15T19:38:32.047Z,25.00
2023-02-15T19:41:11.070Z,23.50
2023-02-15T19:43:39.735Z,24.00
2023-02-15T19:46:12.414Z,25.70
2023-02-15T19:48:40.889Z,26.10
2023-02-15T19:51:09.368Z,28.80
2023-02-15T19:53:38.365Z,27.40
2023-02-15T19:56:16.034Z,28.30
2023-02-15T19:58:45.783Z,33.90
2023-02-15T20:01:15.248Z,33.90
2023-02-15T20:03:44.745Z,33.40
2023-02-15T20:06:16.639Z,31.70
2023-02-15T20:08:45.503Z,31.30
2023-02-15T20:11:15.092Z,33.80
2023-02-15T20:13:44.027Z,29.80
2023-02-15T20:16:12.841Z,32.60
2023-02-15T20:18:45.385Z,27.70
2023-02-15T20:21:16.629Z,23.70
2023-02-15T20:23:47.274Z,24.60
2023-02-15T20:26:18.483Z,25.10
2023-02-15T20:28:49.026Z,25.20
2023-02-15T20:31:19.391Z,23.70
2023-02-15T20:33:49.675Z,24.20
2023-02-15T20:36:21.875Z,24.90
2023-02-15T20:38:50.996Z,25.50
2023-02-15T20:41:39.405Z,24.60
2023-02-15T20:44:18.991Z,24.10
2023-02-15T20:46:51.440Z,24.70
2023-02-15T20:49:20.956Z,26.80
2023-02-15T20:51:51.674Z,28.50
2023-02-15T20:54:22.799Z,30.30
2023-02-15T20:56:52.014Z,28.20
2023-02-15T20:59:26.381Z,31.40
2023-02-15T21:01:56.879Z,29.10
2023-02-15T21:04:32.981Z,28.10
2023-02-15T21:07:01.821Z,27.40
2023-02-15T21:09:31.597Z,27.20
2023-02-15T21:12:02.822Z,29.00
2023-02-15T21:14:31.927Z,29.70
2023-02-15T21:17:01.176Z,30.20
2023-02-15T21:19:30.704Z,28.50
2023-02-15T21:22:00.836Z,28.50
2023-02-15T21:24:29.633Z,27.10
2023-02-15T21:27:00.820Z,28.90
2023-02-15T21:29:29.355Z,25.50
2023-02-15T21:32:02.714Z,26.60
2023-02-15T21:34:30.825Z,27.40
2023-02-15T21:36:59.202Z,26.60
2023-02-15T21:39:28.399Z,26.40
2023-02-15T21:42:15.926Z,26.90
2023-02-15T21:45:04.268Z,25.20
2023-02-15T21:47:50.628Z,26.80
2023-02-15T21:50:39.445Z,27.90
2023-02-15T21:53:11.672Z,27.10
2023-02-15T21:55:40.600Z,27.80
2023-02-15T21:58:17.162Z,29.60
2023-02-15T22:00:48.664Z,29.10
2023-02-15T22:03:17.828Z,29.40
2023-02-15T22:05:46.488Z,30.40
2023-02-15T22:08:16.429Z,30.20
2023-02-15T22:10:45.801Z,28.90
2023-02-15T22:13:18.083Z,29.80
2023-02-15T22:15:48.869Z,28.80
2023-02-15T22:18:22.633Z,29.90
2023-02-15T22:20:52.133Z,31.00
2023-02-15T22:23:22.412Z,29.90
2023-02-15T22:25:54.915Z,29.40
2023-02-15T22:28:26.455Z,29.20
2023-02-15T22:30:54.426Z,28.50
2023-02-15T22:33:24.480Z,30.20
2023-02-15T22:35:52.739Z,28.60
2023-02-15T22:38:21.613Z,29.00
2023-02-15T22:40:51.003Z,30.00
2023-02-15T22:43:25.525Z,30.30
2023-02-15T22:45:55.410Z,28.30
2023-02-15T22:48:23.630Z,31.00
2023-02-15T22:50:51.710Z,29.10
2023-02-15T22:53:20.266Z,28.70
2023-02-15T22:55:48.522Z,30.20
2023-02-15T22:58:20.255Z,30.10
2023-02-15T23:00:49.607Z,29.30
2023-02-15T23:03:19.480Z,31.20
2023-02-15T23:05:47.806Z,29.80
2023-02-15T23:08:15.963Z,29.70
2023-02-15T23:10:45.159Z,31.10
2023-02-15T23:13:25.448Z,30.00
2023-02-15T23:15:55.737Z,30.10
2023-02-15T23:18:29.346Z,30.50
2023-02-15T23:20:58.940Z,29.40
2023-02-15T23:23:32.131Z,30.10
2023-02-15T23:26:02.554Z,29.70
2023-02-15T23:28:34.386Z,29.50
2023-02-15T23:31:02.917Z,30.30
2023-02-15T23:33:32.709Z,29.80
2023-02-15T23:36:00.999Z,28.90
2023-02-15T23:38:30.177Z,31.10
2023-02-15T23:41:20.677Z,30.00
2023-02-15T23:44:02.735Z,28.80
2023-02-15T23:46:41.389Z,30.70
2023-02-15T23:49:16.612Z,29.80
2023-02-15T23:51:46.442Z,29.90
2023-02-15T23:54:14.979Z,30.60
2023-02-15T23:56:43.333Z,30.10
2023-02-15T23:59:19.233Z,30.30
